Time;durP1;ratioP1;P1;durP2;ratioP2;P2;SDS_P1;SDS_P2;PMS_P1;PMS_P2;Temp;Humidity;BMP_temperature;BMP_pressure;BME280_temperature;BME280_humidity;BME280_pressure;Samples;Min_cycle;Max_cycle;Signal;HPM_P1;HPM_P2
2022/05/15 00:02:10;;;;;;;0.40;0.40;;;;;;;12.88;78.45;100552.06;5027537;28;20582;-51
2022/05/15 00:04:37;;;;;;;0.30;0.20;;;;;;;12.53;80.80;100563.06;5013859;28;20472;-51
2022/05/15 00:07:05;;;;;;;0.40;0.20;;;;;;;12.59;82.32;100563.72;5014618;28;20445;-51
2022/05/15 00:09:33;;;;;;;0.40;0.20;;;;;;;12.79;81.57;100556.88;5014612;28;20453;-52
2022/05/15 00:11:59;;;;;;;1.67;1.57;;;;;;;12.70;82.00;100556.25;5014621;28;20552;-52
2022/05/15 00:14:26;;;;;;;0.40;0.20;;;;;;;12.48;82.94;100555.22;5020846;28;20477;-52
2022/05/15 00:16:53;;;;;;;0.37;0.20;;;;;;;12.59;83.91;100545.03;5014643;28;20488;-52
2022/05/15 00:19:20;;;;;;;0.80;0.47;;;;;;;12.57;83.70;100546.91;5014457;28;20941;-52
2022/05/15 00:21:46;;;;;;;0.63;0.63;;;;;;;12.65;83.14;100538.66;5020204;28;20510;-52
2022/05/15 00:24:14;;;;;;;0.33;0.20;;;;;;;12.57;82.92;100546.03;5014487;28;20472;-52
2022/05/15 00:26:40;;;;;;;0.40;0.30;;;;;;;12.44;83.20;100545.56;5014351;28;20484;-52
2022/05/15 00:29:07;;;;;;;0.40;0.20;;;;;;;12.02;84.99;100551.31;5014179;28;20500;-52
2022/05/15 00:31:34;;;;;;;0.40;0.37;;;;;;;12.40;83.80;100541.25;5014296;28;20457;-52
2022/05/15 00:34:00;;;;;;;0.40;0.20;;;;;;;12.05;84.71;100542.34;5029444;28;20547;-52
2022/05/15 00:36:27;;;;;;;0.40;0.30;;;;;;;12.11;84.73;100542.16;5014332;28;20457;-52
2022/05/15 00:38:54;;;;;;;0.30;0.20;;;;;;;11.95;85.28;100541.75;5013910;28;20868;-52
2022/05/15 00:41:20;;;;;;;0.30;0.20;;;;;;;11.81;86.42;100538.63;5014147;28;20452;-52
2022/05/15 00:43:53;;;;;;;0.87;0.87;;;;;;;12.04;85.49;100540.59;5013887;28;20580;-52
2022/05/15 00:46:26;;;;;;;0.50;0.40;;;;;;;11.74;85.56;100537.91;5018033;28;20457;-52
2022/05/15 00:48:55;;;;;;;0.37;0.30;;;;;;;11.71;85.42;100542.44;5018325;28;20945;-52
2022/05/15 00:51:42;;;;;;;0.83;0.83;;;;;;;11.75;85.65;100536.97;5016701;28;20457;-51
2022/05/15 00:54:29;;;;;;;0.30;0.20;;;;;;;11.80;85.53;100536.91;5013080;28;21001;-52
2022/05/15 00:57:07;;;;;;;0.40;0.20;;;;;;;11.41;87.36;100541.53;5013704;28;20483;-52
2022/05/15 00:59:42;;;;;;;0.50;0.43;;;;;;;11.56;86.66;100539.31;5014052;28;20444;-52
2022/05/15 01:02:10;;;;;;;0.30;0.20;;;;;;;11.87;86.17;100543.78;5013754;28;20456;-52
2022/05/15 01:04:37;;;;;;;0.30;0.20;;;;;;;11.96;85.27;100535.50;5013820;28;20468;-51
2022/05/15 01:07:05;;;;;;;0.30;0.20;;;;;;;11.82;85.84;100543.03;5013193;28;20941;-52
2022/05/15 01:09:31;;;;;;;0.30;0.20;;;;;;;11.72;87.16;100537.06;5019048;28;20966;-52
2022/05/15 01:12:01;;;;;;;1.70;1.70;;;;;;;11.81;86.13;100539.50;5013573;28;20536;-52
2022/05/15 01:14:28;;;;;;;0.30;0.20;;;;;;;11.81;87.16;100541.31;5013334;28;20499;-52
2022/05/15 01:16:55;;;;;;;0.40;0.20;;;;;;;11.67;87.10;100538.13;5013099;28;20448;-51
2022/05/15 01:19:32;;;;;;;0.30;0.20;;;;;;;11.77;87.48;100537.81;5013399;28;20531;-51
2022/05/15 01:22:00;;;;;;;1.23;0.60;;;;;;;11.86;87.38;100539.38;5023146;28;20510;-52
2022/05/15 01:24:27;;;;;;;0.30;0.20;;;;;;;11.78;87.41;100530.69;5014075;28;20526;-52
2022/05/15 01:26:54;;;;;;;0.40;0.37;;;;;;;11.75;87.66;100531.66;5013323;28;21008;-52
2022/05/15 01:29:33;;;;;;;0.77;0.77;;;;;;;11.67;87.67;100535.47;5013100;28;20444;-52
2022/05/15 01:32:01;;;;;;;0.30;0.20;;;;;;;11.91;87.22;100531.22;5022236;28;20464;-51
2022/05/15 01:34:28;;;;;;;0.30;0.20;;;;;;;11.86;86.37;100532.25;5012804;28;20485;-52
2022/05/15 01:36:55;;;;;;;0.30;0.20;;;;;;;11.84;86.42;100534.09;5013415;28;20452;-52
2022/05/15 01:39:22;;;;;;;0.30;0.20;;;;;;;11.41;87.74;100530.91;5025054;28;20938;-52
2022/05/15 01:41:48;;;;;;;0.30;0.20;;;;;;;11.71;87.64;100535.34;5019166;28;20488;-52
2022/05/15 01:44:15;;;;;;;0.30;0.20;;;;;;;11.71;86.89;100538.00;5012677;28;20492;-52
2022/05/15 01:46:41;;;;;;;2.60;1.33;;;;;;;11.61;87.50;100538.31;5012816;28;20499;-51
2022/05/15 01:49:08;;;;;;;0.30;0.20;;;;;;;11.45;87.53;100536.06;5013023;28;20485;-52
2022/05/15 01:51:39;;;;;;;0.40;0.30;;;;;;;11.63;87.31;100533.81;5012993;28;20515;-51
2022/05/15 01:54:05;;;;;;;0.30;0.20;;;;;;;11.46;87.47;100540.47;5016389;28;20479;-52
2022/05/15 01:56:32;;;;;;;0.30;0.20;;;;;;;11.19;88.39;100549.22;5020796;28;21011;-52
2022/05/15 01:58:59;;;;;;;0.40;0.40;;;;;;;11.52;87.22;100552.78;5012211;28;20826;-51
2022/05/15 02:01:26;;;;;;;0.40;0.20;;;;;;;11.34;88.04;100542.63;5014436;28;20460;-52
2022/05/15 02:03:52;;;;;;;0.30;0.20;;;;;;;11.18;88.53;100542.16;5012336;28;20572;-52
2022/05/15 02:06:19;;;;;;;0.50;0.50;;;;;;;11.29;87.95;100540.09;5012705;28;20503;-52
2022/05/15 02:08:48;;;;;;;0.30;0.20;;;;;;;11.14;87.75;100545.84;5012560;28;20495;-51
2022/05/15 02:11:14;;;;;;;0.30;0.20;;;;;;;11.04;88.94;100546.97;5012538;28;20475;-52
2022/05/15 02:13:41;;;;;;;0.30;0.20;;;;;;;10.99;89.47;100541.78;5012270;28;20527;-52
2022/05/15 02:16:08;;;;;;;0.30;0.20;;;;;;;10.90;90.19;100536.69;5012645;28;20445;-52
2022/05/15 02:18:34;;;;;;;0.30;0.20;;;;;;;10.89;89.38;100533.16;5011044;28;20864;-52
2022/05/15 02:21:01;;;;;;;0.30;0.20;;;;;;;10.76;90.91;100531.72;5021608;28;20513;-52
2022/05/15 02:23:28;;;;;;;0.30;0.20;;;;;;;10.71;91.54;100531.00;5012110;28;20551;-52
2022/05/15 02:25:55;;;;;;;0.40;0.20;;;;;;;10.91;90.18;100535.78;5012248;28;20491;-52
2022/05/15 02:28:21;;;;;;;0.30;0.20;;;;;;;10.92;89.08;100526.88;5014212;28;20488;-52
2022/05/15 02:30:48;;;;;;;0.40;0.30;;;;;;;10.84;88.75;100527.09;5012342;28;20502;-51
2022/05/15 02:33:16;;;;;;;0.30;0.20;;;;;;;10.60;90.59;100535.69;5012052;28;21021;-52
2022/05/15 02:35:43;;;;;;;2.00;0.77;;;;;;;10.68;90.67;100526.59;5012454;28;20523;-52
2022/05/15 02:38:09;;;;;;;0.30;0.20;;;;;;;10.68;90.78;100531.03;5011762;28;20526;-52
2022/05/15 02:40:36;;;;;;;0.30;0.20;;;;;;;10.41;91.29;100529.06;5012590;28;20486;-52
2022/05/15 02:43:03;;;;;;;0.30;0.20;;;;;;;10.33;92.72;100530.13;5012017;28;20599;-52
2022/05/15 02:45:30;;;;;;;0.30;0.20;;;;;;;10.46;92.81;100529.84;5012155;28;20453;-52
2022/05/15 02:47:56;;;;;;;0.30;0.20;;;;;;;10.61;92.68;100519.72;5012057;28;20448;-52
2022/05/15 02:53:08;;;;;;;0.40;0.40;;;;;;;10.57;91.32;100522.50;5012064;28;20452;-52
2022/05/15 02:55:35;;;;;;;0.30;0.20;;;;;;;10.51;92.47;100523.50;5012455;28;20933;-52
2022/05/15 02:58:02;;;;;;;0.43;0.37;;;;;;;10.58;92.00;100524.22;5011992;28;20519;-53
2022/05/15 03:00:29;;;;;;;0.30;0.20;;;;;;;10.37;92.33;100530.94;5012518;28;20459;-52
2022/05/15 03:02:56;;;;;;;0.30;0.20;;;;;;;10.36;93.09;100532.72;5011597;28;20534;-52
2022/05/15 03:05:27;;;;;;;0.30;0.20;;;;;;;10.44;92.20;100542.31;5011903;28;20917;-51
2022/05/15 03:07:54;;;;;;;0.30;0.20;;;;;;;10.29;92.66;100538.22;5011970;28;20863;-51
2022/05/15 03:10:22;;;;;;;0.30;0.20;;;;;;;10.27;92.22;100532.91;5013308;28;20498;-52
2022/05/15 03:12:50;;;;;;;0.30;0.20;;;;;;;10.13;93.33;100537.66;5015899;28;20466;-52
2022/05/15 03:15:16;;;;;;;0.30;0.20;;;;;;;10.14;93.36;100530.53;5017801;28;20476;-52
2022/05/15 03:17:43;;;;;;;0.80;0.80;;;;;;;10.08;94.41;100536.88;5023068;28;20444;-52
2022/05/15 03:20:13;;;;;;;0.40;0.30;;;;;;;10.09;94.19;100522.69;5016095;28;20949;-53
2022/05/15 03:22:40;;;;;;;0.30;0.20;;;;;;;10.12;93.05;100530.59;5021359;28;20472;-52
2022/05/15 03:25:08;;;;;;;0.60;0.60;;;;;;;10.04;93.65;100525.47;5015655;28;20994;-52
2022/05/15 03:27:35;;;;;;;0.30;0.20;;;;;;;10.13;93.45;100526.16;5015460;28;20867;-52
2022/05/15 03:30:05;;;;;;;0.30;0.20;;;;;;;10.04;93.85;100527.25;5015675;28;20816;-52
2022/05/15 03:32:31;;;;;;;0.40;0.30;;;;;;;10.05;94.08;100521.03;5021107;28;20491;-52
2022/05/15 03:34:58;;;;;;;0.30;0.20;;;;;;;10.00;93.88;100534.38;5015305;28;21052;-51
2022/05/15 03:37:24;;;;;;;0.40;0.30;;;;;;;10.07;92.89;100529.81;5015065;28;20506;-52
2022/05/15 03:39:51;;;;;;;0.30;0.20;;;;;;;10.06;93.03;100536.94;5015276;28;20448;-51
2022/05/15 03:42:19;;;;;;;0.30;0.30;;;;;;;10.04;93.90;100535.22;5015361;28;20556;-53
2022/05/15 03:44:45;;;;;;;0.40;0.30;;;;;;;10.00;94.49;100537.03;5014847;28;20546;-52
2022/05/15 03:47:12;;;;;;;0.30;0.20;;;;;;;10.08;94.91;100534.22;5015205;28;20452;-52
2022/05/15 03:49:38;;;;;;;0.40;0.33;;;;;;;9.98;94.65;100532.69;5023262;28;20515;-52
2022/05/15 03:52:06;;;;;;;0.30;0.30;;;;;;;10.19;93.38;100532.22;5016331;28;20457;-51
2022/05/15 03:54:32;;;;;;;0.30;0.20;;;;;;;10.29;92.86;100539.09;5014773;28;20478;-52
2022/05/15 03:56:59;;;;;;;0.30;0.20;;;;;;;10.38;92.76;100530.00;5014891;28;20452;-52
2022/05/15 03:59:34;;;;;;;0.30;0.20;;;;;;;10.36;92.42;100530.06;5014982;28;20832;-52
2022/05/15 04:02:03;;;;;;;0.40;0.30;;;;;;;10.17;93.41;100527.84;5027038;28;20463;-52
2022/05/15 04:04:30;;;;;;;0.30;0.20;;;;;;;10.11;94.72;100536.81;5022777;28;21011;-52
2022/05/15 04:06:57;;;;;;;0.30;0.20;;;;;;;10.14;94.34;100538.50;5017637;28;20453;-52
2022/05/15 04:09:25;;;;;;;0.60;0.60;;;;;;;10.24;94.94;100529.47;5029632;28;20966;-51
2022/05/15 04:11:51;;;;;;;0.30;0.20;;;;;;;10.20;96.27;100533.09;5018887;28;20510;-53
2022/05/15 04:14:18;;;;;;;1.00;0.83;;;;;;;10.34;95.00;100538.97;5014682;28;20997;-52
2022/05/15 04:16:45;;;;;;;0.30;0.20;;;;;;;10.36;96.07;100529.19;5014657;28;20456;-52
2022/05/15 04:19:12;;;;;;;0.30;0.20;;;;;;;10.58;95.54;100527.75;5014745;28;20874;-52
2022/05/15 04:21:40;;;;;;;0.30;0.20;;;;;;;10.82;94.70;100530.69;5020632;28;20518;-52
2022/05/15 04:24:13;;;;;;;0.30;0.20;;;;;;;10.85;94.02;100526.19;5014391;28;20584;-52
2022/05/15 04:26:41;;;;;;;0.30;0.20;;;;;;;11.13;92.75;100546.75;5014593;28;20514;-52
2022/05/15 04:29:08;;;;;;;6.90;1.70;;;;;;;11.09;92.75;100534.41;5014422;28;21008;-52
2022/05/15 04:31:35;;;;;;;0.30;0.20;;;;;;;11.10;93.07;100533.50;5014394;28;20488;-52
2022/05/15 04:34:04;;;;;;;0.30;0.20;;;;;;;11.16;93.25;100528.03;5013991;28;20472;-52
2022/05/15 04:36:33;;;;;;;0.30;0.20;;;;;;;11.31;93.11;100526.75;5014395;28;20459;-52
2022/05/15 04:39:01;;;;;;;0.30;0.20;;;;;;;11.20;93.51;100532.34;5021525;28;20509;-52
2022/05/15 04:41:28;;;;;;;0.30;0.20;;;;;;;11.24;94.28;100528.72;5023369;28;20816;-52
2022/05/15 04:43:55;;;;;;;0.30;0.20;;;;;;;11.75;92.00;100530.78;5014685;28;21206;-52
2022/05/15 04:46:25;;;;;;;0.30;0.20;;;;;;;12.27;89.37;100532.75;5023882;28;20495;-52
2022/05/15 04:48:52;;;;;;;0.30;0.20;;;;;;;12.86;87.30;100542.38;5014098;28;20445;-53
2022/05/15 04:51:19;;;;;;;0.30;0.20;;;;;;;13.26;85.78;100540.13;5013817;28;20495;-53
2022/05/15 04:53:46;;;;;;;0.30;0.20;;;;;;;13.76;83.62;100544.53;5011344;28;20534;-52
2022/05/15 04:56:12;;;;;;;0.30;0.20;;;;;;;14.18;81.50;100542.03;5013871;28;20942;-53
2022/05/15 04:58:39;;;;;;;2.10;0.73;;;;;;;14.80;79.27;100543.97;5014149;28;20492;-52
2022/05/15 05:01:05;;;;;;;0.50;0.43;;;;;;;15.14;77.24;100545.22;5007927;28;20512;-52
2022/05/15 05:03:32;;;;;;;0.40;0.20;;;;;;;15.40;75.42;100531.56;5013370;28;20508;-52
2022/05/15 05:05:59;;;;;;;0.40;0.20;;;;;;;15.55;75.53;100538.91;5024798;28;20451;-54
2022/05/15 05:08:25;;;;;;;0.30;0.20;;;;;;;15.97;74.44;100543.28;5016196;28;21037;-53
2022/05/15 05:10:52;;;;;;;0.40;0.20;;;;;;;15.87;73.86;100542.81;5013140;28;20479;-52
2022/05/15 05:13:18;;;;;;;0.40;0.40;;;;;;;16.02;73.43;100543.91;5013092;28;20508;-52
2022/05/15 05:15:45;;;;;;;0.37;0.20;;;;;;;16.04;73.53;100549.25;5014420;28;20453;-52
2022/05/15 05:18:17;;;;;;;0.40;0.30;;;;;;;16.03;73.11;100551.03;5016772;28;20952;-53
2022/05/15 05:20:45;;;;;;;0.60;0.50;;;;;;;16.37;71.76;100555.66;5021006;28;20452;-52
2022/05/15 05:23:12;;;;;;;0.40;0.20;;;;;;;16.48;72.01;100547.97;5021029;28;20940;-53
2022/05/15 05:25:39;;;;;;;0.40;0.20;;;;;;;16.55;72.16;100554.75;5015889;28;20471;-53
2022/05/15 05:28:06;;;;;;;0.40;0.20;;;;;;;16.87;70.09;100557.72;5013378;28;20949;-53
2022/05/15 05:30:32;;;;;;;0.40;0.20;;;;;;;16.21;72.35;100557.34;5014293;28;20511;-52
2022/05/15 05:33:00;;;;;;;0.40;0.40;;;;;;;16.20;72.10;100561.84;5011929;28;20445;-52
2022/05/15 05:35:28;;;;;;;0.40;0.20;;;;;;;16.13;73.05;100562.19;5013214;28;20861;-52
2022/05/15 05:37:55;;;;;;;0.40;0.20;;;;;;;16.57;71.44;100563.59;5014750;28;20481;-53
2022/05/15 05:40:22;;;;;;;0.40;0.20;;;;;;;17.02;70.34;100558.75;5025831;28;20489;-52
2022/05/15 05:42:49;;;;;;;1.33;0.80;;;;;;;17.13;69.98;100551.00;5016990;28;20515;-52
2022/05/15 05:45:17;;;;;;;0.70;0.70;;;;;;;17.26;69.39;100559.28;5022552;28;20500;-52
2022/05/15 05:47:49;;;;;;;0.40;0.40;;;;;;;17.15;69.63;100562.56;5013398;28;20511;-53
2022/05/15 05:50:17;;;;;;;0.40;0.30;;;;;;;17.15;69.42;100558.06;5019019;28;20487;-54
2022/05/15 05:52:44;;;;;;;0.40;0.20;;;;;;;17.42;68.60;100561.13;5014208;28;20456;-56
2022/05/15 05:55:14;;;;;;;0.50;0.40;;;;;;;17.29;69.38;100565.41;5010530;28;20475;-52
2022/05/15 05:57:42;;;;;;;0.40;0.27;;;;;;;17.37;68.51;100568.53;5013661;28;20489;-52
2022/05/15 06:00:13;;;;;;;0.40;0.30;;;;;;;17.43;68.52;100576.31;5022273;28;20456;-52
2022/05/15 06:02:40;;;;;;;0.40;0.20;;;;;;;17.21;69.45;100570.28;5019789;28;20933;-53
2022/05/15 06:05:07;;;;;;;0.73;0.70;;;;;;;17.69;68.51;100563.34;5014247;28;20546;-53
2022/05/15 06:07:34;;;;;;;0.73;0.73;;;;;;;18.08;66.92;100567.47;5001835;28;20499;-53
2022/05/15 06:10:03;;;;;;;0.40;0.20;;;;;;;18.37;64.98;100569.44;5016332;28;20449;-53
2022/05/15 06:12:29;;;;;;;0.50;0.40;;;;;;;17.75;66.79;100565.69;5012368;28;20452;-53
2022/05/15 06:14:56;;;;;;;0.40;0.20;;;;;;;17.70;67.25;100565.06;5013192;28;20504;-53
2022/05/15 06:17:26;;;;;;;0.40;0.30;;;;;;;17.69;67.92;100557.97;5024892;28;20483;-53
2022/05/15 06:19:53;;;;;;;0.50;0.43;;;;;;;17.91;67.03;100561.22;5016437;28;20456;-53
2022/05/15 06:22:20;;;;;;;1.03;0.77;;;;;;;18.20;66.43;100556.03;5013447;28;20492;-53
2022/05/15 06:24:46;;;;;;;0.60;0.60;;;;;;;18.30;66.14;100557.28;5015164;28;20985;-53
2022/05/15 06:27:13;;;;;;;0.97;0.60;;;;;;;18.17;67.53;100561.59;5013396;28;20463;-53
2022/05/15 06:29:41;;;;;;;17.87;2.93;;;;;;;18.18;66.66;100557.94;5012548;28;20472;-53
2022/05/15 06:32:09;;;;;;;0.40;0.30;;;;;;;18.50;66.68;100557.03;5012535;28;20480;-53
2022/05/15 06:34:36;;;;;;;1.47;1.37;;;;;;;18.42;67.49;100556.59;5012166;28;20465;-53
2022/05/15 06:37:03;;;;;;;0.83;0.83;;;;;;;18.72;67.28;100550.41;5016072;28;20503;-53
2022/05/15 06:39:31;;;;;;;0.40;0.20;;;;;;;18.72;68.04;100553.13;5012851;28;20456;-53
2022/05/15 06:42:00;;;;;;;0.40;0.20;;;;;;;18.81;66.79;100555.28;5013134;28;20463;-52
2022/05/15 06:44:27;;;;;;;0.50;0.33;;;;;;;18.91;67.20;100551.97;5021585;28;20492;-52
2022/05/15 06:46:56;;;;;;;0.40;0.30;;;;;;;18.90;67.51;100547.50;5019795;28;20452;-52
2022/05/15 06:49:22;;;;;;;0.40;0.20;;;;;;;19.10;66.72;100556.25;5017458;28;20463;-52
2022/05/15 06:51:49;;;;;;;0.80;0.77;;;;;;;19.05;66.32;100547.56;5016208;28;20563;-52
2022/05/15 06:54:16;;;;;;;0.40;0.30;;;;;;;19.19;67.53;100544.94;5016660;28;20480;-52
2022/05/15 06:59:28;;;;;;;0.50;0.50;;;;;;;19.63;66.08;100553.03;5022901;28;20448;-52
2022/05/15 07:01:55;;;;;;;0.50;0.30;;;;;;;19.52;67.27;100550.09;5026003;28;20916;-52
2022/05/15 07:04:21;;;;;;;0.40;0.20;;;;;;;19.51;67.32;100553.75;5022499;28;20857;-53
2022/05/15 07:06:48;;;;;;;0.50;0.30;;;;;;;19.33;66.63;100546.78;5024688;28;20452;-52
2022/05/15 07:09:15;;;;;;;0.40;0.30;;;;;;;19.50;66.71;100550.19;5020839;28;20460;-53
2022/05/15 07:11:41;;;;;;;0.40;0.20;;;;;;;19.28;67.18;100546.19;5020562;28;20492;-52
2022/05/15 07:14:08;;;;;;;0.77;0.77;;;;;;;19.50;68.32;100535.84;5025190;28;21049;-53
2022/05/15 07:16:36;;;;;;;0.50;0.40;;;;;;;20.00;65.86;100543.47;5028199;28;20879;-53
2022/05/15 07:19:03;;;;;;;0.40;0.20;;;;;;;20.28;65.05;100545.28;5026913;28;20455;-53
2022/05/15 07:21:30;;;;;;;0.40;0.20;;;;;;;20.48;65.25;100546.72;5016939;28;20511;-52
2022/05/15 07:23:56;;;;;;;0.50;0.40;;;;;;;20.79;63.58;100539.28;5015679;28;20542;-53
2022/05/15 07:26:24;;;;;;;0.50;0.50;;;;;;;20.78;61.72;100548.34;5015682;28;20534;-52
2022/05/15 07:28:51;;;;;;;0.70;0.40;;;;;;;21.05;61.08;100535.69;5023726;28;20444;-53
2022/05/15 07:31:19;;;;;;;0.40;0.20;;;;;;;20.84;59.79;100547.97;5015477;28;20455;-53
2022/05/15 07:33:49;;;;;;;0.40;0.20;;;;;;;20.66;60.18;100533.81;5015257;28;21010;-52
2022/05/15 07:36:16;;;;;;;0.40;0.20;;;;;;;20.84;61.03;100537.16;5015273;28;20448;-52
2022/05/15 07:38:42;;;;;;;0.60;0.60;;;;;;;21.08;59.73;100538.19;5015262;28;20483;-53
2022/05/15 07:41:09;;;;;;;0.40;0.30;;;;;;;21.21;59.00;100538.19;5015117;28;20472;-52
2022/05/15 07:43:36;;;;;;;0.50;0.40;;;;;;;20.80;60.04;100536.47;5015223;28;20501;-53
2022/05/15 07:46:03;;;;;;;0.40;0.20;;;;;;;21.18;59.26;100524.91;5015005;28;20488;-52
2022/05/15 07:48:30;;;;;;;0.40;0.20;;;;;;;21.56;58.38;100528.53;5014973;28;20531;-53
2022/05/15 07:50:56;;;;;;;0.40;0.30;;;;;;;21.67;57.49;100535.06;5015228;28;20455;-53
2022/05/15 07:53:23;;;;;;;1.03;0.60;;;;;;;21.58;58.10;100532.00;5014650;28;20570;-52
2022/05/15 07:55:50;;;;;;;0.70;0.70;;;;;;;21.32;59.93;100529.38;5013887;28;20499;-52
2022/05/15 07:58:17;;;;;;;0.40;0.30;;;;;;;21.58;59.15;100529.31;5015081;28;20449;-52
2022/05/15 08:00:43;;;;;;;0.50;0.40;;;;;;;21.44;58.49;100525.84;5014727;28;20512;-53
2022/05/15 08:03:12;;;;;;;0.50;0.50;;;;;;;22.01;58.03;100534.34;5014765;28;20452;-52
2022/05/15 08:08:24;;;;;;;0.40;0.20;;;;;;;21.59;57.50;100525.63;5014559;28;20452;-53
2022/05/15 08:10:51;;;;;;;0.43;0.30;;;;;;;21.37;58.03;100519.97;5014619;28;20479;-52
2022/05/15 08:13:25;;;;;;;0.50;0.40;;;;;;;21.40;57.97;100519.78;5014509;28;20484;-52
2022/05/15 08:15:52;;;;;;;0.40;0.20;;;;;;;21.30;57.63;100521.38;5014434;28;20499;-53
2022/05/15 08:23:53;;;;;;;0.40;0.30;;;;;;;21.83;57.49;100514.03;5004071;28;20496;-52
2022/05/15 08:26:20;;;;;;;11.83;1.70;;;;;;;21.87;57.47;100515.53;5014230;28;20480;-53
2022/05/15 08:28:47;;;;;;;0.40;0.30;;;;;;;22.15;56.10;100515.28;5014693;28;20459;-53
2022/05/15 08:31:14;;;;;;;0.40;0.20;;;;;;;22.41;57.08;100510.66;5014436;28;20452;-53
2022/05/15 08:33:41;;;;;;;0.40;0.20;;;;;;;22.35;55.84;100507.56;5014282;28;20476;-53
2022/05/15 08:36:08;;;;;;;0.40;0.20;;;;;;;22.27;56.48;100516.25;5014294;28;20603;-52
2022/05/15 08:38:36;;;;;;;0.50;0.40;;;;;;;22.28;56.60;100506.28;5013747;28;20926;-53
2022/05/15 08:41:25;;;;;;;0.50;0.30;;;;;;;22.06;56.47;100506.97;5014164;28;20477;-53
2022/05/15 08:44:22;;;;;;;1.03;0.67;;;;;;;22.27;55.73;100508.13;5014256;28;20484;-53
2022/05/15 08:46:49;;;;;;;0.40;0.20;;;;;;;22.15;56.23;100506.31;5014023;28;20833;-53
2022/05/15 08:49:21;;;;;;;0.50;0.30;;;;;;;22.48;55.69;100513.81;5013997;28;20463;-53
2022/05/15 08:52:07;;;;;;;0.40;0.20;;;;;;;22.97;54.71;100510.97;5014235;28;20481;-52
2022/05/15 08:54:39;;;;;;;0.40;0.20;;;;;;;22.95;53.27;100510.22;5003322;28;20491;-53
2022/05/15 08:57:15;;;;;;;0.50;0.40;;;;;;;23.26;53.48;100519.56;5013901;28;20507;-53
2022/05/15 08:59:53;;;;;;;0.53;0.50;;;;;;;22.99;54.42;100521.69;5013786;28;20933;-53
2022/05/15 09:02:21;;;;;;;0.50;0.43;;;;;;;23.49;52.93;100519.63;5013942;28;20441;-53
2022/05/15 09:04:48;;;;;;;0.40;0.20;;;;;;;22.91;53.65;100518.72;5013678;28;20524;-53
2022/05/15 09:07:27;;;;;;;0.87;0.87;;;;;;;23.14;53.12;100515.09;5013286;28;20819;-53
2022/05/15 09:10:00;;;;;;;0.50;0.30;;;;;;;23.43;51.99;100517.38;5013408;28;20455;-53
2022/05/15 09:12:28;;;;;;;0.40;0.20;;;;;;;22.83;53.83;100513.00;5013588;28;20488;-53
2022/05/15 09:14:59;;;;;;;0.50;0.47;;;;;;;23.03;52.69;100510.53;5013639;28;20507;-53
2022/05/15 09:17:44;;;;;;;0.40;0.30;;;;;;;22.88;51.70;100516.22;5013492;28;20506;-53
2022/05/15 09:20:16;;;;;;;0.50;0.33;;;;;;;23.22;50.96;100503.66;5013338;28;20503;-53
2022/05/15 09:22:54;;;;;;;1.63;1.50;;;;;;;23.28;52.00;100505.88;5013857;28;20441;-54
2022/05/15 09:25:23;;;;;;;0.50;0.40;;;;;;;23.97;50.25;100501.28;5013396;28;20550;-54
2022/05/15 09:27:59;;;;;;;0.50;0.30;;;;;;;24.02;50.29;100501.78;5013551;28;20483;-53
2022/05/15 09:30:35;;;;;;;0.40;0.30;;;;;;;24.37;49.30;100500.78;5013478;28;20456;-53
2022/05/15 09:33:02;;;;;;;0.40;0.20;;;;;;;23.49;50.90;100492.50;5013084;28;20450;-53
2022/05/15 09:35:35;;;;;;;0.50;0.40;;;;;;;23.99;50.14;100496.63;5013270;28;20451;-53
2022/05/15 09:43:54;;;;;;;0.50;0.40;;;;;;;24.00;50.01;100492.91;5012982;28;20468;-53
2022/05/15 09:46:24;;;;;;;0.73;0.73;;;;;;;24.36;49.40;100477.31;5001019;28;20519;-53
2022/05/15 09:49:22;;;;;;;0.40;0.30;;;;;;;24.17;49.71;100483.38;5012909;28;20619;-53
2022/05/15 09:51:54;;;;;;;0.50;0.30;;;;;;;24.14;50.50;100470.06;5013026;28;20456;-53
2022/05/15 09:54:34;;;;;;;0.73;0.73;;;;;;;24.11;49.65;100473.88;4999489;28;21070;-53
2022/05/15 09:57:15;;;;;;;0.40;0.20;;;;;;;23.99;50.03;100472.19;5012827;28;20456;-53
2022/05/15 09:59:51;;;;;;;0.40;0.20;;;;;;;24.41;49.30;100475.09;5012704;28;20882;-53
2022/05/15 10:02:24;;;;;;;0.47;0.30;;;;;;;24.21;50.79;100473.97;5012938;28;20448;-53
2022/05/15 10:04:53;;;;;;;0.40;0.30;;;;;;;24.31;50.13;100475.00;5012492;28;20495;-54
2022/05/15 10:07:40;;;;;;;0.53;0.43;;;;;;;24.34;49.31;100485.59;5012789;28;20849;-53
2022/05/15 10:10:18;;;;;;;0.50;0.40;;;;;;;24.76;50.49;100472.09;5012493;28;20503;-53
2022/05/15 10:12:52;;;;;;;0.40;0.20;;;;;;;25.12;48.82;100461.84;5027796;28;20460;-53
2022/05/15 10:15:19;;;;;;;0.40;0.30;;;;;;;25.32;47.77;100464.53;5012605;28;20465;-53
2022/05/15 10:17:52;;;;;;;0.50;0.30;;;;;;;24.95;47.42;100465.97;5012661;28;20535;-53
2022/05/15 10:20:34;;;;;;;0.40;0.30;;;;;;;24.80;47.31;100462.69;4999368;28;20445;-53
2022/05/15 10:23:13;;;;;;;0.40;0.20;;;;;;;24.89;47.40;100455.63;5012629;28;20503;-53
2022/05/15 10:25:45;;;;;;;1.53;1.17;;;;;;;25.19;46.96;100449.41;5012097;28;20488;-53
2022/05/15 10:28:23;;;;;;;0.40;0.20;;;;;;;24.65;47.27;100445.81;5012350;28;20502;-53
2022/05/15 10:31:15;;;;;;;0.50;0.37;;;;;;;24.94;48.04;100437.03;5013421;28;20519;-53
2022/05/15 10:33:50;;;;;;;0.40;0.20;;;;;;;24.96;48.78;100430.50;5021162;28;20527;-53
2022/05/15 10:36:44;;;;;;;0.73;0.73;;;;;;;24.94;44.88;100424.28;5018976;28;20480;-53
2022/05/15 10:39:40;;;;;;;0.40;0.30;;;;;;;24.89;47.84;100423.84;5014378;28;20948;-53
2022/05/15 10:42:16;;;;;;;0.50;0.30;;;;;;;25.22;44.91;100424.63;5013015;28;20463;-53
2022/05/15 10:45:00;;;;;;;0.60;0.30;;;;;;;25.93;44.20;100414.69;5023132;28;20509;-53
2022/05/15 10:47:53;;;;;;;0.40;0.30;;;;;;;25.57;44.88;100406.06;5009923;28;20496;-51
2022/05/15 10:50:26;;;;;;;1.13;1.03;;;;;;;25.89;45.03;100411.34;5008354;28;21010;-51
2022/05/15 10:53:01;;;;;;;0.40;0.30;;;;;;;25.27;45.18;100409.66;5008369;28;20457;-51
2022/05/15 10:59:04;;;;;;;0.43;0.30;;;;;;;25.62;44.21;100400.19;5005778;28;20887;-53
2022/05/15 11:01:44;;;;;;;0.40;0.30;;;;;;;26.12;43.48;100392.91;4990713;28;20844;-51
2022/05/15 11:04:28;;;;;;;0.40;0.20;;;;;;;26.09;42.52;100395.06;5010555;28;20530;-51
2022/05/15 11:07:30;;;;;;;9.00;2.33;;;;;;;26.22;39.67;100398.41;5008821;28;20985;-51
2022/05/15 11:10:18;;;;;;;0.50;0.30;;;;;;;26.24;38.36;100391.78;5000985;28;20522;-51
2022/05/15 11:12:48;;;;;;;0.50;0.30;;;;;;;25.82;38.87;100395.72;5011724;28;20987;-52
2022/05/15 11:15:29;;;;;;;0.60;0.60;;;;;;;25.79;38.25;100390.56;5027691;28;21004;-52
2022/05/15 11:18:08;;;;;;;0.50;0.40;;;;;;;26.38;40.19;100382.38;5015162;28;20452;-51
2022/05/15 11:20:47;;;;;;;0.67;0.67;;;;;;;26.05;38.07;100386.31;5015336;28;20459;-51
2022/05/15 11:23:24;;;;;;;0.40;0.30;;;;;;;25.83;39.13;100379.25;5014642;28;20922;-51
2022/05/15 11:26:02;;;;;;;0.47;0.37;;;;;;;25.59;38.27;100387.72;5012592;28;20553;-52
2022/05/15 11:28:33;;;;;;;0.40;0.20;;;;;;;26.05;39.39;100382.75;5009579;28;20993;-51
2022/05/15 11:31:03;;;;;;;0.80;0.60;;;;;;;26.65;38.67;100376.19;5014988;28;20822;-52
2022/05/15 11:33:48;;;;;;;0.40;0.30;;;;;;;25.89;38.20;100373.22;5024155;28;20500;-51
2022/05/15 11:36:29;;;;;;;0.40;0.30;;;;;;;25.29;39.79;100382.31;5016625;28;20464;-51
2022/05/15 11:39:14;;;;;;;0.43;0.27;;;;;;;25.47;39.64;100382.50;5018302;28;21032;-51
2022/05/15 11:41:43;;;;;;;0.40;0.30;;;;;;;25.94;40.47;100372.81;5019294;28;20483;-52
2022/05/15 11:44:10;;;;;;;0.40;0.30;;;;;;;26.24;39.76;100369.13;5017985;28;20934;-51
2022/05/15 11:47:15;;;;;;;1.07;1.07;;;;;;;26.45;39.66;100366.28;5015872;28;20505;-51
2022/05/15 11:50:12;;;;;;;0.50;0.40;;;;;;;26.12;39.81;100362.09;5001877;28;20456;-51
2022/05/15 11:52:51;;;;;;;0.40;0.30;;;;;;;26.18;40.30;100358.81;5009809;28;21012;-52
2022/05/15 11:55:48;;;;;;;0.70;0.50;;;;;;;26.35;39.93;100355.38;5023024;28;20838;-52
2022/05/15 11:58:37;;;;;;;1.27;1.03;;;;;;;26.25;40.26;100355.34;5017665;28;20898;-51
2022/05/15 12:01:12;;;;;;;0.50;0.30;;;;;;;26.16;40.40;100350.75;5020972;28;20487;-51
2022/05/15 12:03:39;;;;;;;0.50;0.30;;;;;;;26.57;41.38;100352.34;5041003;28;20472;-51